Airfield :
LOGIN :

Register | Disclaimer

   EN    FR    IT 

 










Legend :    VFR   Marginal VFR   IFR   Intensive IFR   Very Intensive IFR
Visi :
Ceiling :
>= 8 km
>= 3000ft
5 to 8 km
1000 to 3000 ft
1500m to 5 km
500 to 1000 ft
800 to 1500m
200 to 500 ft
< 800m
< 200 ft
Symbols :   Thunderstorms  Fog  Heavy snow  Heavy precipitations  Wind > 20 kt
SIGMETs :     Misc.  Thunderstorms  Icing  Turbulence  Mountain Waves  Volcanic Ashes






- Airport Elevation : 682 ft
- IATA code : VTB


UMII - Vitebsk

CURRENT METAR :
  • 271400Z 11008G12MPS 9000 NSC 20/08 Q1014 TEMPO 2000 TSRA BKN007 BKN015CB

EXPIRED METARs :
  • 271300Z 11008G12MPS 8000 NSC 20/08 Q1014 TEMPO 2100 -SHRA BKN007 BKN015CB
  • 271200Z 11008G13MPS 7000 NSC 21/08 Q1014 NOSIG
  • 271100Z 10008G13MPS 7000 NSC 20/08 Q1014 NOSIG

TAF TAF UMII
Valid from the 27 at 12:00 until the 27 at 21:00 UTC


271102Z 2712/2721 10007G12MPS 9999 BKN020
TEMPO 2712/2721 VRB15MPS 2000 TSRA DU BKN005 BKN015CB



MET'MAP, your aeronautical weather chart ! - Copyright ORBIFLY December 2007 - Disclaimer

ORBIFLY MET'MAP TEAM :

Programming & Development : Alexandra Zaïnal
Concept & original design : Baudouin d'Aumeries
Assistance for programming : Marc-Olivier Méhu
Technical & hardware support : Manuel Goepfert

Contact : metmap@orbifly.com




SOURCES & CREDITS :

   NOAA